createdAt,value
2023-05-19T00:00:59.226Z,2.65
2023-05-19T00:03:27.239Z,2.53
2023-05-19T00:05:54.163Z,2.45
2023-05-19T00:08:23.921Z,2.20
2023-05-19T00:10:50.709Z,2.38
2023-05-19T00:13:17.455Z,2.53
2023-05-19T00:15:44.295Z,2.40
2023-05-19T00:18:14.041Z,2.90
2023-05-19T00:20:41.427Z,2.70
2023-05-19T00:23:08.135Z,2.33
2023-05-19T00:25:34.740Z,2.50
2023-05-19T00:28:02.478Z,2.30
2023-05-19T00:30:32.572Z,2.17
2023-05-19T00:32:59.263Z,2.13
2023-05-19T00:35:26.005Z,2.58
2023-05-19T00:37:52.674Z,2.28
2023-05-19T00:40:19.424Z,2.60
2023-05-19T00:42:45.978Z,2.55
2023-05-19T00:45:12.553Z,3.10
2023-05-19T00:47:39.517Z,2.75
2023-05-19T00:50:06.387Z,2.50
2023-05-19T00:52:32.986Z,2.30
2023-05-19T00:54:59.609Z,2.33
2023-05-19T00:57:27.103Z,2.80
2023-05-19T00:59:54.088Z,2.55
2023-05-19T01:02:21.548Z,2.60
2023-05-19T01:04:48.929Z,2.90
2023-05-19T01:07:16.483Z,2.85
2023-05-19T01:09:43.135Z,2.70
2023-05-19T01:12:09.755Z,2.95
2023-05-19T01:14:36.308Z,2.88
2023-05-19T01:17:21.300Z,2.65
2023-05-19T01:20:02.196Z,2.95
2023-05-19T01:22:58.944Z,2.80
2023-05-19T01:25:59.483Z,2.53
2023-05-19T01:28:47.870Z,2.63
2023-05-19T01:31:16.758Z,2.25
2023-05-19T01:33:44.002Z,2.28
2023-05-19T01:36:12.343Z,2.38
2023-05-19T01:38:39.618Z,3.22
2023-05-19T01:41:06.996Z,2.63
2023-05-19T01:43:35.868Z,2.58
2023-05-19T01:46:03.627Z,2.47
2023-05-19T01:48:30.582Z,2.65
2023-05-19T01:50:57.372Z,2.92
2023-05-19T01:53:24.775Z,2.45
2023-05-19T01:55:53.891Z,3.00
2023-05-19T01:58:37.874Z,2.38
2023-05-19T02:01:24.992Z,2.58
2023-05-19T02:04:19.789Z,2.45
2023-05-19T02:07:03.531Z,2.95
2023-05-19T02:09:42.188Z,2.90
2023-05-19T02:12:40.134Z,2.55
2023-05-19T02:15:16.910Z,2.70
2023-05-19T02:17:48.393Z,2.95
2023-05-19T02:20:16.468Z,3.28
2023-05-19T02:22:43.262Z,2.53
2023-05-19T02:25:10.916Z,3.03
2023-05-19T02:27:38.906Z,2.47
2023-05-19T02:30:06.780Z,3.60
2023-05-19T02:32:33.414Z,2.47
2023-05-19T02:35:00.096Z,2.58
2023-05-19T02:37:28.713Z,2.70
2023-05-19T02:39:55.311Z,2.78
2023-05-19T02:42:21.962Z,3.00
2023-05-19T02:44:48.783Z,3.05
2023-05-19T02:47:15.661Z,2.72
2023-05-19T02:49:43.024Z,2.95
2023-05-19T02:52:09.608Z,2.92
2023-05-19T02:54:36.265Z,2.95
2023-05-19T02:57:02.804Z,2.88
2023-05-19T02:59:29.334Z,2.92
2023-05-19T03:01:59.041Z,3.22
2023-05-19T03:04:25.622Z,3.60
2023-05-19T03:06:52.426Z,2.92
2023-05-19T03:09:18.907Z,3.03
2023-05-19T03:11:45.537Z,2.65
2023-05-19T03:14:14.012Z,3.38
2023-05-19T03:16:42.245Z,2.70
2023-05-19T03:19:09.641Z,2.92
2023-05-19T03:21:36.692Z,2.78
2023-05-19T03:24:03.474Z,2.65
2023-05-19T03:26:29.986Z,2.80
2023-05-19T03:28:56.505Z,2.63
2023-05-19T03:31:23.033Z,2.63
2023-05-19T03:33:49.551Z,2.80
2023-05-19T03:36:16.101Z,3.05
2023-05-19T03:38:42.594Z,2.85
2023-05-19T03:41:09.154Z,3.08
2023-05-19T03:43:35.659Z,3.22
2023-05-19T03:46:02.468Z,2.97
2023-05-19T03:48:29.043Z,2.97
2023-05-19T03:50:55.675Z,3.22
2023-05-19T03:53:22.333Z,2.90
2023-05-19T03:55:49.744Z,3.47
2023-05-19T03:58:16.533Z,3.25
2023-05-19T04:00:42.999Z,3.00
2023-05-19T04:03:09.779Z,2.97
2023-05-19T04:05:36.388Z,2.88
2023-05-19T04:08:02.970Z,3.30
2023-05-19T04:10:29.624Z,3.13
2023-05-19T04:12:56.938Z,3.13
2023-05-19T04:15:23.524Z,3.13
2023-05-19T04:17:50.095Z,3.05
2023-05-19T04:20:16.735Z,3.25
2023-05-19T04:22:43.231Z,3.22
2023-05-19T04:25:09.987Z,3.15
2023-05-19T04:27:39.295Z,3.85
2023-05-19T04:30:06.484Z,3.25
2023-05-19T04:32:33.206Z,3.03
2023-05-19T04:34:59.949Z,3.47
2023-05-19T04:37:26.712Z,3.22
2023-05-19T04:39:54.240Z,3.25
2023-05-19T04:42:21.098Z,3.70
2023-05-19T04:44:49.339Z,3.60
2023-05-19T04:47:16.202Z,3.30
2023-05-19T04:49:43.022Z,3.17
2023-05-19T04:52:11.797Z,3.58
2023-05-19T04:54:39.385Z,3.42
2023-05-19T04:57:06.607Z,3.80
2023-05-19T04:59:33.442Z,3.30
2023-05-19T05:02:00.179Z,3.92
2023-05-19T05:04:26.918Z,3.13
2023-05-19T05:06:53.456Z,3.63
2023-05-19T05:09:20.070Z,3.95
2023-05-19T05:11:46.932Z,4.32
2023-05-19T05:14:13.661Z,4.10
2023-05-19T05:16:40.840Z,3.65
2023-05-19T05:19:07.859Z,3.83
2023-05-19T05:21:34.771Z,3.72
2023-05-19T05:24:01.732Z,3.75
2023-05-19T05:26:31.162Z,4.03
2023-05-19T05:28:57.664Z,3.92
2023-05-19T05:31:24.281Z,3.67
2023-05-19T05:33:50.804Z,4.05
2023-05-19T05:36:17.412Z,4.45
2023-05-19T05:38:43.913Z,4.18
2023-05-19T05:41:10.610Z,4.05
2023-05-19T05:43:37.087Z,4.40
2023-05-19T05:46:03.740Z,4.18
2023-05-19T05:48:30.551Z,4.78
2023-05-19T05:50:57.341Z,3.85
2023-05-19T05:53:26.002Z,4.55
2023-05-19T05:55:53.724Z,4.38
2023-05-19T05:58:21.364Z,4.03
2023-05-19T06:00:49.354Z,4.20
2023-05-19T06:03:16.894Z,4.60
2023-05-19T06:05:43.611Z,4.38
2023-05-19T06:08:10.200Z,4.13
2023-05-19T06:10:38.993Z,4.85
2023-05-19T06:13:05.669Z,4.18
2023-05-19T06:15:32.241Z,4.68
2023-05-19T06:17:59.257Z,4.00
2023-05-19T06:20:26.278Z,4.47
2023-05-19T06:22:52.866Z,4.30
2023-05-19T06:25:20.590Z,5.05
2023-05-19T06:27:47.186Z,4.57
2023-05-19T06:30:13.958Z,4.35
2023-05-19T06:32:40.669Z,4.18
2023-05-19T06:35:07.613Z,4.30
2023-05-19T06:37:34.139Z,4.32
2023-05-19T06:40:00.679Z,4.65
2023-05-19T06:42:27.226Z,4.05
2023-05-19T06:44:53.696Z,4.00
2023-05-19T06:47:20.252Z,3.75
2023-05-19T06:49:50.685Z,4.10
2023-05-19T06:52:17.573Z,3.80
2023-05-19T06:54:44.068Z,4.18
2023-05-19T06:57:10.768Z,3.80
2023-05-19T06:59:37.625Z,4.05
2023-05-19T07:02:04.792Z,3.88
2023-05-19T07:04:31.430Z,3.72
2023-05-19T07:06:58.658Z,3.97
2023-05-19T07:09:25.307Z,3.70
2023-05-19T07:11:51.820Z,3.70
2023-05-19T07:14:18.323Z,3.67
2023-05-19T07:16:45.010Z,3.50
2023-05-19T07:19:11.692Z,3.20
2023-05-19T07:21:38.232Z,3.35
2023-05-19T07:24:04.884Z,3.80
2023-05-19T07:26:31.964Z,3.25
2023-05-19T07:28:58.551Z,2.75
2023-05-19T07:31:25.151Z,3.30
2023-05-19T07:33:54.301Z,2.92
2023-05-19T07:36:21.406Z,2.55
2023-05-19T07:38:48.825Z,2.78
2023-05-19T07:41:15.477Z,2.75
2023-05-19T07:43:42.643Z,2.97
2023-05-19T07:46:09.264Z,2.83
2023-05-19T07:48:35.894Z,2.28
2023-05-19T07:51:02.550Z,2.25
2023-05-19T07:53:29.143Z,2.47
2023-05-19T07:55:58.362Z,2.28
2023-05-19T07:58:25.379Z,2.05
2023-05-19T08:00:53.238Z,2.08
2023-05-19T08:03:20.800Z,1.90
2023-05-19T08:05:47.658Z,2.13
2023-05-19T08:08:17.037Z,1.85
2023-05-19T08:10:43.860Z,1.65
2023-05-19T08:13:10.481Z,1.60
2023-05-19T08:15:37.692Z,1.73
2023-05-19T08:18:05.469Z,2.03
2023-05-19T08:20:32.762Z,1.50
2023-05-19T08:22:59.896Z,1.38
2023-05-19T08:25:26.658Z,1.50
2023-05-19T08:27:53.267Z,1.30
2023-05-19T08:30:19.887Z,1.40
2023-05-19T08:32:47.112Z,1.17
2023-05-19T08:35:13.705Z,1.45
2023-05-19T08:37:41.145Z,1.35
2023-05-19T08:40:11.858Z,1.40
2023-05-19T08:42:38.436Z,0.93
2023-05-19T08:45:06.934Z,1.20
2023-05-19T08:47:33.882Z,1.10
2023-05-19T08:50:07.602Z,1.20
2023-05-19T08:52:53.256Z,1.13
2023-05-19T08:55:41.186Z,1.08
2023-05-19T08:58:08.703Z,1.42
2023-05-19T09:00:36.058Z,1.42
2023-05-19T09:03:18.256Z,1.38
2023-05-19T09:05:50.765Z,1.48
2023-05-19T09:08:18.412Z,1.23
2023-05-19T09:10:44.974Z,1.45
2023-05-19T09:13:11.722Z,0.85
2023-05-19T09:15:39.881Z,1.20
2023-05-19T09:18:08.902Z,1.35
2023-05-19T09:20:46.229Z,1.33
2023-05-19T09:23:17.274Z,1.60
2023-05-19T09:25:47.527Z,1.70
2023-05-19T09:28:14.035Z,1.30
2023-05-19T09:30:40.521Z,1.55
2023-05-19T09:33:10.132Z,1.60
2023-05-19T09:35:37.231Z,1.50
2023-05-19T09:38:04.013Z,1.23
2023-05-19T09:40:32.142Z,1.73
2023-05-19T09:42:58.657Z,1.50
2023-05-19T09:45:27.196Z,1.38
2023-05-19T09:47:53.983Z,1.20
2023-05-19T09:50:20.559Z,1.52
2023-05-19T09:52:48.226Z,1.25
2023-05-19T09:55:15.541Z,1.88
2023-05-19T09:57:42.090Z,1.45
2023-05-19T10:00:17.637Z,1.63
2023-05-19T10:02:46.175Z,1.50
2023-05-19T10:05:22.842Z,1.50
2023-05-19T10:07:51.626Z,0.95
2023-05-19T10:10:22.242Z,1.30
2023-05-19T10:12:49.625Z,1.52
2023-05-19T10:15:19.604Z,1.58
2023-05-19T10:17:50.019Z,1.45
2023-05-19T10:20:17.775Z,1.30
2023-05-19T10:22:46.401Z,1.35
2023-05-19T10:25:15.254Z,1.23
2023-05-19T10:27:56.437Z,1.38
2023-05-19T10:30:36.668Z,1.65
2023-05-19T10:33:07.840Z,1.75
2023-05-19T10:35:40.531Z,1.42
2023-05-19T10:38:44.613Z,1.48
2023-05-19T10:41:23.030Z,1.50
2023-05-19T10:44:11.623Z,1.58
2023-05-19T10:46:40.459Z,1.60
2023-05-19T10:49:09.957Z,1.40
2023-05-19T10:51:37.198Z,1.60
2023-05-19T10:54:10.463Z,1.13
2023-05-19T10:56:42.377Z,1.30
2023-05-19T10:59:32.747Z,1.33
2023-05-19T11:02:06.995Z,1.55
2023-05-19T11:04:53.611Z,1.63
2023-05-19T11:07:22.408Z,1.40
2023-05-19T11:09:51.572Z,1.42
2023-05-19T11:12:24.736Z,1.45
2023-05-19T11:14:55.261Z,1.20
2023-05-19T11:17:23.707Z,1.38
2023-05-19T11:19:55.493Z,1.40
2023-05-19T11:22:27.448Z,1.02
2023-05-19T11:24:57.554Z,1.23
2023-05-19T11:27:31.627Z,1.15
2023-05-19T11:30:08.833Z,1.63
2023-05-19T11:32:39.354Z,1.10
2023-05-19T11:35:07.835Z,1.33
2023-05-19T11:37:34.916Z,1.17
2023-05-19T11:40:02.884Z,1.40
2023-05-19T11:42:29.422Z,1.30
2023-05-19T11:44:56.286Z,1.20
2023-05-19T11:47:23.169Z,1.52
2023-05-19T11:49:52.027Z,1.55
2023-05-19T11:52:22.126Z,0.80
2023-05-19T11:54:49.292Z,1.33
2023-05-19T11:57:15.825Z,1.30
2023-05-19T11:59:45.731Z,0.90
2023-05-19T12:02:24.859Z,1.30
2023-05-19T12:04:52.362Z,1.13
2023-05-19T12:07:22.833Z,1.13
2023-05-19T12:09:50.425Z,1.13
2023-05-19T12:12:19.108Z,1.13
2023-05-19T12:14:52.712Z,1.05
2023-05-19T12:17:21.294Z,1.25
2023-05-19T12:19:49.318Z,1.30
2023-05-19T12:22:19.749Z,1.02
2023-05-19T12:24:47.206Z,1.40
2023-05-19T12:27:23.223Z,1.30
2023-05-19T12:29:54.505Z,0.98
2023-05-19T12:32:25.680Z,1.27
2023-05-19T12:34:53.741Z,1.60
2023-05-19T12:37:20.302Z,1.23
2023-05-19T12:39:48.872Z,1.13
2023-05-19T12:45:36.171Z,2.10
2023-05-19T12:48:11.280Z,2.03
2023-05-19T12:50:38.327Z,2.13
2023-05-19T12:53:09.360Z,1.40
2023-05-19T12:55:45.442Z,1.40
2023-05-19T12:58:15.455Z,1.73
2023-05-19T13:00:45.244Z,1.70
2023-05-19T13:03:20.406Z,1.65
2023-05-19T13:05:49.087Z,1.67
2023-05-19T13:10:45.865Z,1.40
2023-05-19T13:13:13.087Z,1.52
2023-05-19T13:15:42.106Z,1.65
2023-05-19T13:18:10.896Z,1.50
2023-05-19T13:20:38.956Z,1.75
2023-05-19T13:23:05.855Z,1.63
2023-05-19T13:25:34.367Z,1.70
2023-05-19T13:28:05.085Z,1.70
2023-05-19T13:30:33.025Z,1.65
2023-05-19T13:32:59.861Z,1.63
2023-05-19T13:35:26.664Z,1.60
2023-05-19T13:37:53.369Z,1.63
2023-05-19T13:40:20.247Z,1.30
2023-05-19T13:42:47.075Z,1.52
2023-05-19T13:45:13.800Z,1.05
2023-05-19T13:47:40.383Z,1.42
2023-05-19T13:50:07.416Z,1.40
2023-05-19T13:52:34.066Z,1.55
2023-05-19T13:55:00.641Z,1.52
2023-05-19T13:57:27.204Z,1.50
2023-05-19T14:00:02.044Z,1.58
2023-05-19T14:02:30.334Z,1.60
2023-05-19T14:04:57.597Z,1.50
2023-05-19T14:07:24.389Z,1.85
2023-05-19T14:09:52.302Z,1.15
2023-05-19T14:12:19.344Z,1.40
2023-05-19T14:14:48.976Z,1.25
2023-05-19T14:17:15.713Z,1.13
2023-05-19T14:19:42.395Z,1.42
2023-05-19T14:22:08.996Z,1.42
2023-05-19T14:24:35.604Z,1.50
2023-05-19T14:27:02.178Z,1.45
2023-05-19T14:29:31.018Z,1.33
2023-05-19T14:31:57.757Z,1.15
2023-05-19T14:34:24.423Z,1.58
2023-05-19T14:36:51.091Z,1.13
2023-05-19T14:39:17.623Z,1.33
2023-05-19T14:41:44.196Z,1.13
2023-05-19T14:44:11.095Z,1.10
2023-05-19T14:46:37.714Z,1.27
2023-05-19T14:49:06.412Z,1.27
2023-05-19T14:51:33.011Z,1.10
2023-05-19T14:54:00.621Z,1.40
2023-05-19T14:56:27.143Z,1.20
2023-05-19T14:58:53.659Z,1.27
2023-05-19T15:01:20.293Z,1.20
2023-05-19T15:03:46.940Z,1.35
2023-05-19T15:06:13.560Z,1.17
2023-05-19T15:08:41.553Z,1.60
2023-05-19T15:11:08.236Z,1.17
2023-05-19T15:13:34.816Z,1.33
2023-05-19T15:16:16.225Z,1.50
2023-05-19T15:18:44.516Z,1.63
2023-05-19T15:21:11.238Z,1.40
2023-05-19T15:23:37.789Z,1.38
2023-05-19T15:26:04.600Z,1.13
2023-05-19T15:28:31.226Z,1.15
2023-05-19T15:30:57.776Z,2.25
2023-05-19T15:33:24.428Z,1.10
2023-05-19T15:35:52.188Z,1.13
2023-05-19T15:38:19.659Z,1.17
2023-05-19T15:40:46.751Z,1.30
2023-05-19T15:43:13.538Z,1.13
2023-05-19T15:45:40.275Z,1.20
2023-05-19T15:48:06.998Z,1.58
2023-05-19T15:50:34.101Z,1.33
2023-05-19T15:53:00.860Z,1.40
2023-05-19T15:55:27.496Z,1.15
2023-05-19T15:57:54.042Z,1.23
2023-05-19T16:00:20.730Z,1.10
2023-05-19T16:02:47.441Z,1.48
2023-05-19T16:05:14.101Z,1.30
2023-05-19T16:07:42.106Z,1.58
2023-05-19T16:10:09.126Z,1.55
2023-05-19T16:12:36.726Z,1.40
2023-05-19T16:15:03.644Z,1.45
2023-05-19T16:17:30.367Z,1.42
2023-05-19T16:19:57.122Z,1.30
2023-05-19T16:22:24.844Z,1.45
2023-05-19T16:24:52.229Z,1.23
2023-05-19T16:27:19.104Z,1.52
2023-05-19T16:29:45.776Z,1.33
2023-05-19T16:32:12.904Z,1.20
2023-05-19T16:34:39.772Z,1.27
2023-05-19T16:37:06.746Z,1.15
2023-05-19T16:39:36.095Z,1.50
2023-05-19T16:42:03.772Z,1.15
2023-05-19T16:44:30.432Z,1.40
2023-05-19T16:46:57.021Z,1.63
2023-05-19T16:49:23.576Z,1.67
2023-05-19T16:51:50.055Z,1.85
2023-05-19T16:54:16.735Z,1.30
2023-05-19T16:56:43.378Z,1.73
2023-05-19T16:59:10.036Z,1.33
2023-05-19T17:01:36.565Z,1.30
2023-05-19T17:04:03.151Z,1.33
2023-05-19T17:06:29.807Z,1.75
2023-05-19T17:08:56.367Z,1.70
2023-05-19T17:11:23.032Z,1.42
2023-05-19T17:13:49.597Z,1.27
2023-05-19T17:16:16.547Z,1.48
2023-05-19T17:18:43.946Z,1.80
2023-05-19T17:21:10.731Z,1.40
2023-05-19T17:23:37.866Z,1.25
2023-05-19T17:26:04.620Z,1.63
2023-05-19T17:28:31.110Z,1.80
2023-05-19T17:30:57.652Z,1.35
2023-05-19T17:33:24.324Z,1.20
2023-05-19T17:35:51.159Z,1.52
2023-05-19T17:38:17.674Z,1.63
2023-05-19T17:40:44.443Z,1.52
2023-05-19T17:43:11.067Z,1.50
2023-05-19T17:45:37.608Z,1.60
2023-05-19T17:48:04.756Z,1.55
2023-05-19T17:50:31.528Z,1.80
2023-05-19T17:52:58.467Z,1.40
2023-05-19T17:55:29.710Z,1.42
2023-05-19T17:57:56.896Z,1.63
2023-05-19T18:00:25.246Z,1.27
2023-05-19T18:02:52.654Z,1.50
2023-05-19T18:05:19.958Z,1.58
2023-05-19T18:07:46.997Z,1.40
2023-05-19T18:10:15.382Z,1.63
2023-05-19T18:12:41.980Z,1.55
2023-05-19T18:15:08.909Z,1.40
2023-05-19T18:17:35.478Z,1.33
2023-05-19T18:20:02.415Z,1.52
2023-05-19T18:22:28.966Z,1.15
2023-05-19T18:24:56.222Z,1.48
2023-05-19T18:27:22.737Z,1.38
2023-05-19T18:29:49.282Z,1.25
2023-05-19T18:32:17.669Z,1.20
2023-05-19T18:34:44.508Z,1.30
2023-05-19T18:37:10.973Z,1.38
2023-05-19T18:39:45.170Z,1.15
2023-05-19T18:42:11.688Z,1.08
2023-05-19T18:44:38.224Z,1.42
2023-05-19T18:47:04.976Z,1.40
2023-05-19T18:49:31.905Z,1.50
2023-05-19T18:51:58.421Z,1.25
2023-05-19T18:54:24.936Z,1.30
2023-05-19T18:56:51.422Z,1.33
2023-05-19T18:59:18.002Z,1.40
2023-05-19T19:01:45.265Z,1.42
2023-05-19T19:04:12.047Z,1.38
2023-05-19T19:06:38.624Z,1.45
2023-05-19T19:09:05.127Z,1.77
2023-05-19T19:11:31.712Z,1.40
2023-05-19T19:13:58.212Z,1.73
2023-05-19T19:16:25.111Z,1.42
2023-05-19T19:18:51.952Z,1.52
2023-05-19T19:21:19.914Z,1.60
2023-05-19T19:23:46.413Z,1.38
2023-05-19T19:26:13.119Z,1.33
2023-05-19T19:28:39.673Z,1.63
2023-05-19T19:31:06.168Z,1.35
2023-05-19T19:33:32.732Z,1.55
2023-05-19T19:35:59.311Z,1.65
2023-05-19T19:38:25.912Z,1.77
2023-05-19T19:40:52.609Z,1.83
2023-05-19T19:43:19.156Z,1.67
2023-05-19T19:45:45.685Z,1.90
2023-05-19T19:48:12.517Z,1.52
2023-05-19T19:50:39.051Z,2.17
2023-05-19T19:53:05.667Z,1.98
2023-05-19T19:55:32.377Z,2.05
2023-05-19T19:57:58.916Z,1.70
2023-05-19T20:00:25.453Z,1.80
2023-05-19T20:03:04.417Z,2.00
2023-05-19T20:05:32.249Z,1.85
2023-05-19T20:07:58.862Z,1.90
2023-05-19T20:10:25.481Z,1.83
2023-05-19T20:12:52.228Z,2.05
2023-05-19T20:15:19.391Z,2.05
2023-05-19T20:17:46.208Z,1.90
2023-05-19T20:20:13.151Z,1.70
2023-05-19T20:22:39.727Z,1.52
2023-05-19T20:25:06.601Z,1.65
2023-05-19T20:27:33.212Z,2.00
2023-05-19T20:29:59.783Z,1.95
2023-05-19T20:32:26.356Z,1.80
2023-05-19T20:34:52.995Z,2.00
2023-05-19T20:37:20.945Z,2.05
2023-05-19T20:39:47.706Z,2.22
2023-05-19T20:42:14.322Z,2.58
2023-05-19T20:44:40.994Z,2.72
2023-05-19T20:47:08.227Z,2.30
2023-05-19T20:49:35.309Z,2.25
2023-05-19T20:52:02.188Z,2.63
2023-05-19T20:54:28.790Z,2.72
2023-05-19T20:56:55.438Z,2.33
2023-05-19T20:59:22.044Z,2.30
2023-05-19T21:01:48.658Z,2.75
2023-05-19T21:04:15.402Z,2.55
2023-05-19T21:06:42.018Z,2.63
2023-05-19T21:09:08.844Z,3.30
2023-05-19T21:11:35.602Z,2.60
2023-05-19T21:14:04.191Z,3.03
2023-05-19T21:16:31.318Z,2.85
2023-05-19T21:18:58.025Z,3.20
2023-05-19T21:21:24.644Z,3.15
2023-05-19T21:23:51.153Z,2.85
2023-05-19T21:26:17.922Z,2.22
2023-05-19T21:28:44.558Z,2.45
2023-05-19T21:31:11.339Z,2.67
2023-05-19T21:33:37.920Z,2.38
2023-05-19T21:36:04.653Z,2.67
2023-05-19T21:38:31.184Z,2.13
2023-05-19T21:40:57.786Z,2.63
2023-05-19T21:43:24.286Z,2.30
2023-05-19T21:45:50.807Z,1.95
2023-05-19T21:48:17.653Z,2.10
2023-05-19T21:50:44.412Z,2.10
2023-05-19T21:53:10.908Z,2.40
2023-05-19T21:55:37.487Z,2.15
2023-05-19T21:58:03.944Z,2.05
2023-05-19T22:00:30.464Z,2.33
2023-05-19T22:02:57.697Z,2.22
2023-05-19T22:05:24.425Z,1.95
2023-05-19T22:07:50.950Z,2.08
2023-05-19T22:10:17.512Z,2.08
2023-05-19T22:12:44.051Z,1.95
2023-05-19T22:15:11.457Z,2.20
2023-05-19T22:17:38.028Z,1.88
2023-05-19T22:20:05.423Z,2.28
2023-05-19T22:22:31.924Z,2.33
2023-05-19T22:24:58.650Z,2.30
2023-05-19T22:27:25.175Z,2.15
2023-05-19T22:29:51.689Z,2.00
2023-05-19T22:32:19.526Z,2.00
2023-05-19T22:34:46.358Z,2.35
2023-05-19T22:37:13.061Z,2.60
2023-05-19T22:39:39.622Z,2.22
2023-05-19T22:42:06.229Z,2.17
2023-05-19T22:44:32.767Z,2.13
2023-05-19T22:46:59.304Z,2.30
2023-05-19T22:49:27.391Z,2.15
2023-05-19T22:51:53.888Z,2.22
2023-05-19T22:54:20.507Z,2.42
2023-05-19T22:56:48.749Z,2.42
2023-05-19T22:59:17.927Z,2.00
2023-05-19T23:01:46.509Z,2.63
2023-05-19T23:04:13.960Z,2.10
2023-05-19T23:06:40.731Z,2.58
2023-05-19T23:09:07.219Z,2.20
2023-05-19T23:11:34.702Z,2.75
2023-05-19T23:14:01.931Z,2.15
2023-05-19T23:16:28.476Z,2.40
2023-05-19T23:18:55.087Z,2.20
2023-05-19T23:21:21.585Z,2.30
2023-05-19T23:23:48.172Z,2.00
2023-05-19T23:26:14.640Z,2.50
2023-05-19T23:28:44.647Z,2.53
2023-05-19T23:31:11.210Z,2.28
2023-05-19T23:33:37.747Z,2.58
2023-05-19T23:36:09.044Z,2.78
2023-05-19T23:38:36.528Z,2.60
2023-05-19T23:41:03.851Z,2.38
2023-05-19T23:43:32.274Z,2.50
2023-05-19T23:45:59.251Z,2.80
2023-05-19T23:48:27.148Z,2.60
2023-05-19T23:50:53.627Z,2.25
2023-05-19T23:53:20.128Z,2.65
2023-05-19T23:55:47.366Z,2.22
2023-05-19T23:58:14.659Z,2.33
